createdAt,value
2019-05-15T00:00:11.377Z,52.22
2019-05-15T00:03:38.819Z,52.81
2019-05-15T00:07:01.173Z,52.89
2019-05-15T00:10:24.352Z,52.32
2019-05-15T00:13:48.321Z,51.46
2019-05-15T00:17:11.864Z,52.03
2019-05-15T00:20:34.994Z,50.53
2019-05-15T00:23:59.420Z,49.73
2019-05-15T00:27:23.813Z,47.93
2019-05-15T00:30:48.108Z,49.61
2019-05-15T00:34:13.009Z,48.50
2019-05-15T00:37:38.536Z,49.16
2019-05-15T00:41:01.494Z,48.82
2019-05-15T00:44:25.014Z,47.45
2019-05-15T00:47:48.812Z,48.84
2019-05-15T00:51:14.760Z,49.53
2019-05-15T00:54:38.843Z,49.37
2019-05-15T00:58:02.187Z,49.55
2019-05-15T01:01:25.765Z,49.83
2019-05-15T01:04:48.849Z,49.92
2019-05-15T01:08:11.979Z,50.12
2019-05-15T01:11:38.203Z,49.75
2019-05-15T01:15:01.403Z,49.82
2019-05-15T01:18:25.023Z,50.20
2019-05-15T01:21:48.498Z,49.90
2019-05-15T01:25:12.009Z,50.36
2019-05-15T01:28:38.603Z,50.21
2019-05-15T01:32:02.367Z,50.76
2019-05-15T01:35:25.549Z,51.04
2019-05-15T01:38:48.899Z,50.86
2019-05-15T01:42:13.204Z,52.36
2019-05-15T01:45:39.063Z,51.60
2019-05-15T01:49:02.832Z,53.09
2019-05-15T01:52:27.933Z,52.74
2019-05-15T01:55:51.267Z,54.42
2019-05-15T01:59:14.472Z,54.24
2019-05-15T02:02:38.896Z,54.99
2019-05-15T02:06:02.482Z,54.90
2019-05-15T02:09:27.921Z,54.64
2019-05-15T02:12:50.551Z,54.79
2019-05-15T02:16:13.695Z,55.83
2019-05-15T02:19:39.172Z,55.38
2019-05-15T02:23:02.518Z,55.57
2019-05-15T02:26:27.999Z,55.32
2019-05-15T02:29:50.917Z,55.72
2019-05-15T02:33:14.162Z,55.49
2019-05-15T02:36:39.983Z,56.47
2019-05-15T02:40:02.502Z,56.02
2019-05-15T02:43:25.809Z,56.41
2019-05-15T02:46:49.929Z,56.71
2019-05-15T02:50:13.785Z,57.09
2019-05-15T02:53:39.594Z,56.80
2019-05-15T02:57:01.942Z,55.96
2019-05-15T03:00:37.763Z,57.11
2019-05-15T03:03:50.516Z,57.25
2019-05-15T03:07:13.683Z,57.11
2019-05-15T03:10:39.968Z,56.77
2019-05-15T03:14:02.314Z,57.46
2019-05-15T03:17:29.430Z,56.80
2019-05-15T03:20:51.844Z,57.39
2019-05-15T03:24:15.076Z,57.19
2019-05-15T03:27:39.476Z,57.98
2019-05-15T03:31:22.398Z,58.00
2019-05-15T03:34:36.541Z,58.55
2019-05-15T03:37:53.380Z,57.39
2019-05-15T03:41:19.486Z,57.98
2019-05-15T03:44:41.772Z,58.70
2019-05-15T03:48:05.104Z,58.18
2019-05-15T03:51:28.940Z,56.75
2019-05-15T03:54:52.757Z,57.94
2019-05-15T03:58:20.880Z,57.26
2019-05-15T04:01:43.869Z,56.41
2019-05-15T04:05:06.363Z,57.22
2019-05-15T04:08:30.342Z,57.69
2019-05-15T04:11:53.739Z,57.38
2019-05-15T04:15:18.779Z,58.13
2019-05-15T04:18:42.326Z,58.19
2019-05-15T04:22:08.966Z,57.45
2019-05-15T04:25:39.124Z,56.42
2019-05-15T04:29:02.721Z,56.61
2019-05-15T04:32:28.594Z,57.46
2019-05-15T04:35:50.842Z,55.30
2019-05-15T04:39:14.235Z,56.06
2019-05-15T04:42:39.773Z,55.88
2019-05-15T04:46:03.021Z,55.52
2019-05-15T04:49:29.058Z,55.20
2019-05-15T04:52:51.738Z,55.67
2019-05-15T04:56:15.096Z,54.81
2019-05-15T04:59:38.970Z,54.91
2019-05-15T05:03:02.672Z,54.46
2019-05-15T05:06:29.240Z,53.54
2019-05-15T05:09:51.422Z,54.03
2019-05-15T05:13:14.655Z,53.36
2019-05-15T05:16:39.333Z,53.25
2019-05-15T05:20:03.396Z,51.78
2019-05-15T05:23:28.336Z,53.50
2019-05-15T05:26:54.753Z,53.16
2019-05-15T05:30:19.084Z,52.91
2019-05-15T05:33:45.950Z,51.98
2019-05-15T05:37:09.743Z,51.74
2019-05-15T05:40:33.079Z,57.96
2019-05-15T05:43:58.574Z,50.07
2019-05-15T05:47:21.846Z,48.99
2019-05-15T05:50:45.119Z,49.88
2019-05-15T05:54:08.507Z,50.23
2019-05-15T05:57:31.841Z,49.59
2019-05-15T06:00:54.995Z,49.11
2019-05-15T06:04:18.709Z,48.89
2019-05-15T06:07:42.530Z,49.23
2019-05-15T06:11:05.811Z,47.80
2019-05-15T06:14:29.087Z,48.27
2019-05-15T06:17:52.251Z,47.29
2019-05-15T06:21:17.898Z,46.63
2019-05-15T06:24:41.426Z,47.67
2019-05-15T06:28:04.890Z,47.51
2019-05-15T06:31:28.228Z,44.47
2019-05-15T06:34:52.109Z,46.67
2019-05-15T06:38:15.381Z,44.71
2019-05-15T06:41:39.150Z,44.11
2019-05-15T06:45:02.747Z,41.55
2019-05-15T06:48:26.069Z,41.93
2019-05-15T06:51:49.389Z,41.95
2019-05-15T06:55:12.555Z,40.22
2019-05-15T06:58:38.959Z,40.72
2019-05-15T07:02:02.109Z,39.24
2019-05-15T07:05:25.357Z,37.44
2019-05-15T07:08:49.641Z,37.07
2019-05-15T07:12:13.328Z,37.86
2019-05-15T07:15:38.433Z,38.44
2019-05-15T07:19:01.848Z,36.94
2019-05-15T07:22:28.763Z,35.33
2019-05-15T07:25:51.320Z,35.85
2019-05-15T07:29:14.619Z,35.60
2019-05-15T07:32:39.677Z,35.22
2019-05-15T07:36:02.959Z,35.86
2019-05-15T07:39:28.843Z,35.72
2019-05-15T07:42:52.584Z,32.44
2019-05-15T07:46:15.767Z,32.27
2019-05-15T07:49:39.081Z,31.90
2019-05-15T07:53:02.891Z,29.90
2019-05-15T07:56:26.160Z,29.74
2019-05-15T07:59:49.745Z,27.94
2019-05-15T08:03:13.105Z,29.93
2019-05-15T08:06:38.862Z,30.16
2019-05-15T08:10:11.078Z,28.23
2019-05-15T08:13:34.303Z,30.12
2019-05-15T08:16:59.223Z,30.05
2019-05-15T08:20:23.676Z,29.55
2019-05-15T08:23:48.486Z,29.47
2019-05-15T08:27:12.019Z,30.66
2019-05-15T08:30:35.397Z,29.86
2019-05-15T08:34:12.351Z,29.71
2019-05-15T08:37:23.964Z,29.01
2019-05-15T08:40:49.025Z,27.47
2019-05-15T08:44:18.596Z,27.41
2019-05-15T08:47:42.635Z,29.69
2019-05-15T08:51:08.499Z,28.33
2019-05-15T08:54:31.236Z,26.62
2019-05-15T08:57:55.959Z,27.72
2019-05-15T09:01:20.602Z,29.64
2019-05-15T09:04:44.097Z,29.30
2019-05-15T09:08:09.324Z,28.74
2019-05-15T09:11:32.519Z,26.92
2019-05-15T09:14:58.092Z,28.36
2019-05-15T09:18:21.107Z,29.78
2019-05-15T09:21:44.333Z,29.33
2019-05-15T09:25:10.058Z,27.98
2019-05-15T09:28:33.261Z,28.07
2019-05-15T09:31:58.681Z,29.71
2019-05-15T09:35:22.575Z,29.55
2019-05-15T09:38:46.022Z,28.47
2019-05-15T09:42:09.215Z,28.59
2019-05-15T09:45:32.533Z,29.66
2019-05-15T09:48:55.895Z,29.36
2019-05-15T09:52:22.694Z,29.01
2019-05-15T09:55:44.420Z,28.67
2019-05-15T09:59:08.864Z,28.23
2019-05-15T10:02:32.954Z,27.66
2019-05-15T10:05:56.172Z,28.17
2019-05-15T10:09:19.422Z,27.30
2019-05-15T10:12:42.753Z,28.95
2019-05-15T10:16:08.202Z,26.86
2019-05-15T10:19:31.524Z,27.61
2019-05-15T10:22:54.946Z,25.62
2019-05-15T10:26:19.241Z,26.32
2019-05-15T10:29:48.273Z,25.48
2019-05-15T10:33:11.120Z,25.75
2019-05-15T10:36:34.460Z,26.55
2019-05-15T10:39:58.521Z,24.54
2019-05-15T10:43:21.956Z,22.98
2019-05-15T10:46:48.072Z,24.02
2019-05-15T10:50:12.261Z,23.32
2019-05-15T10:53:35.467Z,23.13
2019-05-15T10:57:00.798Z,22.22
2019-05-15T11:00:24.116Z,23.94
2019-05-15T11:03:49.509Z,21.64
2019-05-15T11:07:13.159Z,22.38
2019-05-15T11:10:38.670Z,22.60
2019-05-15T11:14:01.351Z,22.56
2019-05-15T11:17:24.999Z,22.69
2019-05-15T11:20:48.958Z,22.23
2019-05-15T11:24:12.554Z,22.05
2019-05-15T11:27:35.888Z,18.58
2019-05-15T11:30:59.553Z,20.68
2019-05-15T11:34:23.006Z,21.29
2019-05-15T11:37:48.796Z,20.66
2019-05-15T11:41:11.630Z,19.75
2019-05-15T11:44:34.814Z,19.65
2019-05-15T11:48:01.009Z,20.17
2019-05-15T11:51:23.398Z,17.73
2019-05-15T11:54:49.367Z,18.63
2019-05-15T11:58:11.956Z,20.84
2019-05-15T12:01:35.349Z,20.20
2019-05-15T12:04:59.022Z,19.60
2019-05-15T12:08:22.303Z,19.41
2019-05-15T12:11:46.059Z,19.65
2019-05-15T12:15:09.626Z,19.60
2019-05-15T12:18:33.219Z,19.40
2019-05-15T12:21:59.812Z,17.71
2019-05-15T12:25:22.083Z,16.87
2019-05-15T12:28:45.375Z,19.25
2019-05-15T12:32:23.408Z,17.35
2019-05-15T12:35:34.329Z,17.41
2019-05-15T12:38:57.607Z,16.05
2019-05-15T12:59:44.627Z,16.06
2019-05-15T13:02:52.125Z,16.38
2019-05-15T13:06:19.046Z,16.04
2019-05-15T13:09:41.624Z,15.99
2019-05-15T13:13:08.854Z,16.73
2019-05-15T13:16:31.347Z,16.82
2019-05-15T13:19:54.765Z,17.27
2019-05-15T13:23:17.986Z,17.21
2019-05-15T13:26:41.278Z,16.41
2019-05-15T13:30:05.626Z,16.46
2019-05-15T13:33:28.820Z,17.93
2019-05-15T13:36:52.557Z,17.74
2019-05-15T13:40:18.451Z,16.69
2019-05-15T13:43:41.132Z,16.76
2019-05-15T13:47:04.340Z,17.80
2019-05-15T13:50:28.508Z,17.07
2019-05-15T13:53:53.654Z,16.25
2019-05-15T13:57:18.077Z,18.15
2019-05-15T14:00:42.588Z,18.95
2019-05-15T14:04:08.381Z,17.79
2019-05-15T14:07:45.003Z,16.10
2019-05-15T14:10:58.240Z,15.75
2019-05-15T14:14:21.549Z,16.30
2019-05-15T14:17:44.996Z,15.73
2019-05-15T14:21:08.899Z,16.40
2019-05-15T14:24:32.720Z,16.50
2019-05-15T14:27:55.920Z,15.84
2019-05-15T14:31:19.090Z,18.03
2019-05-15T14:34:42.292Z,16.18
2019-05-15T14:38:06.882Z,15.96
2019-05-15T14:41:31.068Z,16.95
2019-05-15T14:44:54.451Z,15.50
2019-05-15T14:48:19.077Z,15.53
2019-05-15T14:51:42.488Z,16.04
2019-05-15T14:55:06.144Z,16.06
2019-05-15T14:58:29.425Z,15.09
2019-05-15T15:01:53.871Z,15.33
2019-05-15T15:05:21.735Z,15.11
2019-05-15T15:08:42.177Z,15.20
2019-05-15T15:12:08.036Z,15.45
2019-05-15T15:15:31.307Z,14.96
2019-05-15T15:18:55.003Z,13.54
2019-05-15T15:22:18.536Z,14.71
2019-05-15T15:25:42.149Z,14.82
2019-05-15T15:29:05.502Z,15.93
2019-05-15T15:32:28.860Z,14.62
2019-05-15T15:35:52.240Z,14.02
2019-05-15T15:39:15.522Z,13.10
2019-05-15T15:42:39.693Z,14.91
2019-05-15T15:46:03.126Z,14.52
2019-05-15T15:49:27.953Z,13.81
2019-05-15T15:52:51.795Z,13.83
2019-05-15T15:56:15.102Z,14.16
2019-05-15T15:59:38.807Z,13.58
2019-05-15T16:03:04.126Z,14.75
2019-05-15T16:06:29.379Z,13.84
2019-05-15T16:09:53.921Z,13.55
2019-05-15T16:13:18.674Z,13.12
2019-05-15T16:16:42.491Z,13.21
2019-05-15T16:20:06.514Z,14.82
2019-05-15T16:23:29.861Z,13.97
2019-05-15T16:26:53.712Z,15.34
2019-05-15T16:30:18.760Z,16.37
2019-05-15T16:33:42.334Z,17.15
2019-05-15T16:37:05.646Z,16.71
2019-05-15T16:40:28.947Z,16.02
2019-05-15T16:43:52.190Z,16.61
2019-05-15T16:47:15.480Z,16.46
2019-05-15T16:50:38.883Z,16.51
2019-05-15T16:54:02.099Z,17.28
2019-05-15T16:57:25.239Z,16.88
2019-05-15T17:00:49.691Z,17.16
2019-05-15T17:04:13.036Z,17.55
2019-05-15T17:07:38.865Z,19.32
2019-05-15T17:11:01.499Z,22.41
2019-05-15T17:14:24.884Z,22.71
2019-05-15T17:17:48.762Z,24.19
2019-05-15T17:21:13.197Z,24.25
2019-05-15T17:24:38.696Z,26.04
2019-05-15T17:28:01.785Z,25.25
2019-05-15T17:31:28.588Z,25.01
2019-05-15T17:34:52.088Z,26.71
2019-05-15T17:38:15.388Z,26.33
2019-05-15T17:41:39.035Z,25.95
2019-05-15T17:45:02.910Z,27.55
2019-05-15T17:48:28.812Z,26.22
2019-05-15T17:51:52.483Z,29.66
2019-05-15T17:55:18.224Z,26.98
2019-05-15T17:58:41.171Z,26.21
2019-05-15T18:02:08.701Z,26.77
2019-05-15T18:05:32.082Z,27.52
2019-05-15T18:08:55.263Z,27.42
2019-05-15T18:12:18.537Z,26.87
2019-05-15T18:15:41.965Z,26.67
2019-05-15T18:19:05.380Z,27.21
2019-05-15T18:22:29.406Z,27.57
2019-05-15T18:25:53.882Z,31.67
2019-05-15T18:29:17.302Z,31.14
2019-05-15T18:32:40.917Z,28.62
2019-05-15T18:36:04.822Z,28.95
2019-05-15T18:39:28.471Z,30.80
2019-05-15T18:42:52.177Z,31.57
2019-05-15T18:46:18.151Z,32.23
2019-05-15T18:49:41.441Z,30.51
2019-05-15T18:53:04.665Z,31.91
2019-05-15T18:56:29.756Z,29.97
2019-05-15T18:59:57.916Z,30.87
2019-05-15T19:03:22.851Z,30.55
2019-05-15T19:06:46.032Z,31.31
2019-05-15T19:10:09.901Z,31.65
2019-05-15T19:13:35.552Z,31.90
2019-05-15T19:16:59.312Z,33.12
2019-05-15T19:20:23.635Z,35.22
2019-05-15T19:23:47.956Z,34.39
2019-05-15T19:27:12.102Z,34.68
2019-05-15T19:30:35.507Z,35.49
2019-05-15T19:33:59.966Z,35.65
2019-05-15T19:37:24.087Z,35.21
2019-05-15T19:40:47.932Z,34.39
2019-05-15T19:44:12.319Z,36.12
2019-05-15T19:47:38.415Z,35.61
2019-05-15T19:51:01.571Z,36.82
2019-05-15T19:54:25.371Z,37.88
2019-05-15T19:57:48.962Z,37.59
2019-05-15T20:01:13.353Z,38.25
2019-05-15T20:04:38.557Z,37.72
2019-05-15T20:08:02.468Z,37.40
2019-05-15T20:11:27.770Z,36.54
2019-05-15T20:14:51.571Z,37.91
2019-05-15T20:18:18.270Z,37.27
2019-05-15T20:21:41.625Z,37.02
2019-05-15T20:25:08.062Z,37.64
2019-05-15T20:28:31.247Z,38.24
2019-05-15T20:31:55.912Z,37.44
2019-05-15T20:35:20.293Z,38.99
2019-05-15T20:38:44.066Z,38.00
2019-05-15T20:42:08.858Z,39.62
2019-05-15T20:45:32.338Z,37.92
2019-05-15T20:48:58.118Z,38.11
2019-05-15T20:52:22.079Z,39.86
2019-05-15T20:55:48.303Z,38.68
2019-05-15T20:59:11.211Z,39.42
2019-05-15T21:02:34.761Z,40.55
2019-05-15T21:06:00.852Z,40.85
2019-05-15T21:09:23.395Z,40.45
2019-05-15T21:12:48.623Z,41.67
2019-05-15T21:16:12.070Z,41.38
2019-05-15T21:19:35.320Z,40.67
2019-05-15T21:23:01.430Z,41.13
2019-05-15T21:26:23.998Z,40.70
2019-05-15T21:29:49.037Z,41.45
2019-05-15T21:33:12.783Z,40.97
2019-05-15T21:36:39.203Z,41.04
2019-05-15T21:40:04.209Z,42.43
2019-05-15T21:43:27.546Z,42.50
2019-05-15T21:46:50.813Z,42.89
2019-05-15T21:50:15.307Z,42.96
2019-05-15T21:53:39.575Z,42.50
2019-05-15T21:57:18.850Z,42.92
2019-05-15T22:00:35.174Z,42.60
2019-05-15T22:03:59.030Z,42.78
2019-05-15T22:07:22.227Z,43.52
2019-05-15T22:10:48.031Z,43.37
2019-05-15T22:14:10.660Z,44.17
2019-05-15T22:17:33.865Z,45.08
2019-05-15T22:20:58.539Z,45.97
2019-05-15T22:24:22.011Z,45.08
2019-05-15T22:27:45.545Z,44.85
2019-05-15T22:31:09.076Z,46.10
2019-05-15T22:34:32.374Z,46.74
2019-05-15T22:37:55.527Z,46.05
2019-05-15T22:41:19.177Z,45.65
2019-05-15T22:44:42.670Z,46.56
2019-05-15T22:48:05.851Z,45.28
2019-05-15T22:51:29.224Z,44.82
2019-05-15T22:54:52.598Z,45.08
2019-05-15T22:58:16.240Z,46.09
2019-05-15T23:01:39.489Z,45.69
2019-05-15T23:05:02.712Z,45.77
2019-05-15T23:08:25.852Z,47.20
2019-05-15T23:11:49.457Z,46.29
2019-05-15T23:15:12.943Z,47.57
2019-05-15T23:18:36.283Z,47.66
2019-05-15T23:21:59.888Z,48.79
2019-05-15T23:25:23.109Z,49.32
2019-05-15T23:28:48.187Z,48.65
2019-05-15T23:32:11.494Z,49.50
2019-05-15T23:35:38.218Z,50.04
2019-05-15T23:38:59.887Z,50.03
2019-05-15T23:42:23.201Z,50.04
2019-05-15T23:45:48.358Z,50.22
2019-05-15T23:49:11.549Z,51.42
2019-05-15T23:52:35.547Z,50.21
2019-05-15T23:55:58.978Z,50.47
2019-05-15T23:59:22.224Z,50.76
